Station: Warra  

  Atmospheric Gas Attenuation - ITU Rec 676-11   ----------------- dB/100km -----------------
Date Time Temp RH % AH g/m3 Dew Point Wind Direction Speed kph Gust kph Barometer mB Rainfall Since 9am 24GHz 47GHz 76GHz 122GHz 134GHz 241GHz
08/05 12:30 8 89 7.36 6.3 17 30 1013.1 0 17.2 25.5 37.6 98.4 88.8 304.0
08/05 12:20 8.3 89 7.5 6.6 20 30 1013.1 0 17.5 25.7 38.0 99.6 90.3 309.5
08/05 12:10 8.5 86 7.35 6.3 13 24 1013.1 0 17.2 25.4 37.3 97.7 88.1 301.5
08/05 12:00 8.9 81 7.1 5.8 19 35 1013.1 0 16.6 24.8 36.1 94.5 84.2 288.3
08/05 11:50 9.1 80 7.1 5.8 20 32 1013.1 0 16.6 24.8 36.0 94.2 84.0 287.5
08/05 11:40 9 83 7.32 6.3 20 26 1013.1 0 17.1 25.2 36.9 96.8 87.1 298.2
08/05 11:30 9.3 82 7.37 6.4 17 33 1013.1 0 17.2 25.2 37.0 96.9 87.4 299.4
08/05 11:20 8.4 80 6.79 5.2 32 43 1013.1 0 15.9 24.5 35.1 91.7 80.7 275.6
08/05 11:10 8.7 80 6.92 5.4 17 30 1013.1 0 16.2 24.6 35.4 92.8 82.1 280.6
08/05 11:00 8.5 81 6.92 5.4 20 43 1013.1 0 16.2 24.7 35.5 93.0 82.3 281.3
08/05 10:50 8.3 86 7.25 6.1 28 37 1013.1 0 16.9 25.3 37.0 96.9 86.9 297.6
08/05 10:40 8.3 84 7.08 5.8 26 37 1013.1 0 16.6 25.0 36.3 95.0 84.6 289.5
08/05 10:30 8.4 86 7.3 6.2 22 43 1013.1 0 17.0 25.3 37.1 97.3 87.5 299.6
08/05 10:20 7.6 88 7.09 5.7 24 28 1013.1 0 16.6 25.2 36.6 96.0 85.5 292.6
08/05 10:10 7.2 91 7.15 5.8 22 35 1013.1 0 16.8 25.4 37.1 97.1 86.8 297.0
08/05 10:00 7.1 90 7.02 5.6 20 39 1013.1 0 16.5 25.2 36.6 95.8 85.1 291.1
08/05 09:50 7.1 89 6.94 5.4 17 28 1013.1 0 16.3 25.1 36.3 94.9 84.0 287.3
08/05 09:40 7.7 88 7.14 5.8 15 19 1013.1 0 16.7 25.2 36.8 96.4 86.1 294.6
08/05 09:30 7.4 87 6.92 5.4 22 41 1013.1 0 16.3 25.0 36.0 94.3 83.5 285.3
08/05 09:20 7 89 6.9 5.3 24 33 1013.1 0 16.2 25.0 36.1 94.6 83.6 285.8
08/05 09:10 6.7 92 6.99 5.5 19 30 1013.1 0 16.5 25.3 36.6 96.0 85.2 291.2
08/05 09:00 6.8 91 6.96 5.4 22 46 1013.1 0 16.4 25.2 36.5 95.5 84.7 289.4
08/05 08:50 6.3 94 6.96 5.4 30 46 1013.1 18.4 16.4 25.3 36.7 96.1 85.2 291.3
08/05 08:40 6.1 95 6.94 5.4 20 32 1013.1 18.4 16.4 25.4 36.7 96.1 85.1 291.0
08/05 08:30 6 94 6.83 5.1 17 30 1013.1 18.2 16.1 25.2 36.3 95.0 83.7 286.1
08/05 08:20 5.9 94 6.78 5 15 22 1013.1 18.2 16.0 25.2 36.1 94.6 83.2 284.1
08/05 08:10 6 94 6.83 5.1 15 19 1013.1 18.2 16.1 25.2 36.3 95.0 83.7 286.1
08/05 08:00 5.7 94 6.69 4.8 19 32 1013.1 18.2 15.8 25.1 35.9 93.8 82.1 280.5
08/05 07:50 5.6 93 6.58 4.6 19 30 1013.1 18.2 15.6 24.9 35.4 92.7 80.7 275.5
08/05 07:40 5.6 93 6.58 4.6 26 35 1013.1 18.2 15.6 24.9 35.4 92.7 80.7 275.5
08/05 07:30 5.4 94 6.56 4.5 20 39 1013.1 18.2 15.6 24.9 35.4 92.8 80.7 275.3
08/05 07:20 5.5 94 6.61 4.6 26 37 1013.1 18 15.7 25.0 35.6 93.2 81.3 277.3
08/05 07:10 5.5 95 6.68 4.8 13 19 1013.1 17.8 15.8 25.1 35.9 94.0 82.2 280.7
08/05 07:00 5.5 94 6.61 4.6 17 32 1013.1 17.6 15.7 25.0 35.6 93.2 81.3 277.3
08/05 06:50 5.5 94 6.61 4.6 19 30 1013.1 17.6 15.7 25.0 35.6 93.2 81.3 277.3
08/05 06:40 5.5 94 6.61 4.6 15 19 1013.1 17.6 15.7 25.0 35.6 93.2 81.3 277.3
08/05 06:30 5.5 94 6.61 4.6 20 35 1013.1 17.4 15.7 25.0 35.6 93.2 81.3 277.3
08/05 06:20 5.6 93 6.58 4.6 19 26 1013.1 17 15.6 24.9 35.4 92.7 80.7 275.5
08/05 06:10 5.5 93 6.54 4.5 19 24 1013.1 17 15.5 24.9 35.3 92.4 80.3 274.0
08/05 06:00 5.6 94 6.65 4.7 19 30 1013.1 17 15.8 25.0 35.7 93.5 81.7 278.9
08/05 05:50 5.7 94 6.69 4.8 15 30 1013.1 16.8 15.8 25.1 35.9 93.8 82.1 280.5
08/05 05:40 5.6 94 6.65 4.7 13 19 1013.1 16.8 15.8 25.0 35.7 93.5 81.7 278.9
08/05 05:30 5.7 94 6.69 4.8 17 28 1013.1 16.6 15.8 25.1 35.9 93.8 82.1 280.5
08/05 05:20 5.7 94 6.69 4.8 17 26 1013.1 16.2 15.8 25.1 35.9 93.8 82.1 280.5
08/05 05:10 5.7 95 6.76 5 17 24 1013.1 16.2 16.0 25.2 36.1 94.6 83.1 283.8
08/05 05:00 5.7 95 6.76 5 17 39 1013.1 16.2 16.0 25.2 36.1 94.6 83.1 283.8
08/05 04:50 5.8 94 6.74 4.9 15 20 1013.1 16 15.9 25.1 36.0 94.3 82.7 282.5
08/05 04:40 5.8 94 6.74 4.9 24 35 1013.1 16 15.9 25.1 36.0 94.3 82.7 282.5
08/05 04:30 5.8 93 6.67 4.8 19 37 1013.1 15.8 15.8 25.0 35.7 93.5 81.8 279.1
08/05 04:20 5.8 93 6.67 4.8 22 35 1013.1 15.6 15.8 25.0 35.7 93.5 81.8 279.1
08/05 04:10 5.8 93 6.67 4.8 20 32 1013.1 15.6 15.8 25.0 35.7 93.5 81.8 279.1
08/05 04:00 5.9 94 6.78 5 17 39 1013.1 15.6 16.0 25.2 36.1 94.6 83.2 284.1
08/05 03:50 5.9 93 6.71 4.9 15 24 1013.1 15.6 15.9 25.0 35.8 93.8 82.2 280.7
08/05 03:40 5.9 94 6.78 5 17 24 1013.1 15.6 16.0 25.2 36.1 94.6 83.2 284.1
08/05 03:30 5.9 94 6.78 5 19 35 1013.1 15.6 16.0 25.2 36.1 94.6 83.2 284.1
08/05 03:20 6 93 6.75 5 19 28 1013.1 15.4 16.0 25.1 36.0 94.1 82.6 282.3
08/05 03:10 6.1 91 6.65 4.7 17 26 1013.1 15 15.7 24.9 35.5 92.9 81.2 277.1
08/05 03:00 6.1 91 6.65 4.7 22 43 1013.1 15 15.7 24.9 35.5 92.9 81.2 277.1
08/05 02:50 6.1 92 6.73 4.9 22 32 1013.1 15 15.9 25.0 35.8 93.8 82.3 280.9
08/05 02:40 6 93 6.75 5 20 32 1013.1 15 16.0 25.1 36.0 94.1 82.6 282.3
08/05 02:30 6 93 6.75 5 20 37 1013.1 15 16.0 25.1 36.0 94.1 82.6 282.3
08/05 02:20 6.2 91 6.7 4.8 19 24 1013.1 14.6 15.8 24.9 35.7 93.4 81.8 279.2
08/05 02:10 6.2 91 6.7 4.8 24 33 1013.1 14.2 15.8 24.9 35.7 93.4 81.8 279.2
08/05 02:00 6.3 90 6.67 4.8 19 56 1013.1 14.2 15.8 24.9 35.5 92.9 81.2 277.4
08/05 01:50 6.6 89 6.72 4.9 15 20 1013.1 14 15.9 24.9 35.6 93.1 81.6 278.7
08/05 01:40 6.5 89 6.68 4.8 19 20 1013.1 13.8 15.8 24.8 35.5 92.8 81.2 277.1
08/05 01:30 6.6 90 6.8 5.1 20 48 1013.1 13.8 16.0 25.0 35.9 94.0 82.7 282.5
08/05 01:20 6.9 90 6.93 5.4 24 43 1013.1 13.8 16.3 25.1 36.3 95.0 84.1 287.6
08/05 01:10 7 92 7.13 5.8 26 44 1013.1 13.8 16.7 25.4 37.1 97.1 86.8 296.8
08/05 01:00 7.1 93 7.26 6 19 33 1013.1 13.8 17.0 25.6 37.6 98.5 88.4 302.7
08/05 00:50 7.2 93 7.3 6.1 19 28 1013.1 13.8 17.1 25.7 37.7 98.8 88.9 304.2
08/05 00:40 7.2 93 7.3 6.1 15 35 1013.1 13.8 17.1 25.7 37.7 98.8 88.9 304.2
08/05 00:30 7.2 93 7.3 6.1 20 37 1013.1 13.8 17.1 25.7 37.7 98.8 88.9 304.2
08/05 00:20 7.3 92 7.27 6.1 26 32 1013.1 13.2 17.0 25.6 37.5 98.3 88.3 302.4
08/05 00:10 7.3 91 7.19 5.9 20 26 1013.1 13 16.9 25.4 37.2 97.4 87.2 298.5
08/05 00:00 7.4 89 7.08 5.7 19 32 1013.1 13 16.6 25.2 36.7 96.1 85.6 292.9
07/05 23:50 7.6 88 7.09 5.7 28 43 1013.1 13 16.6 25.2 36.6 96.0 85.5 292.6
07/05 23:40 7.6 87 7.01 5.6 26 35 1013.1 13 16.5 25.1 36.3 95.1 84.5 288.8
07/05 23:30 7.4 89 7.08 5.7 22 48 1013.1 13 16.6 25.2 36.7 96.1 85.6 292.9
07/05 23:20 7.3 90 7.11 5.8 22 28 1013.1 13 16.7 25.3 36.9 96.5 86.1 294.7
07/05 23:10 7.6 91 7.33 6.2 17 28 1013.1 12.8 17.1 25.6 37.6 98.6 88.8 304.1
07/05 23:00 7.8 90 7.35 6.3 24 46 1013.1 12.8 17.2 25.6 37.6 98.6 88.9 304.3
07/05 22:50 7.9 89 7.31 6.2 19 30 1013.1 12.8 17.1 25.5 37.4 98.0 88.2 302.0
07/05 22:40 7.9 92 7.56 6.7 26 39 1013.1 12.8 17.6 25.9 38.4 100.8 91.6 314.0
07/05 22:30 8.1 92 7.66 6.9 22 54 1013.1 12.8 17.8 26.0 38.8 101.6 92.8 318.0
07/05 22:20 8.1 93 7.74 7 20 30 1013.1 12.6 18.0 26.1 39.1 102.5 93.9 321.8
07/05 22:10 8.2 91 7.62 6.8 20 30 1013.1 12.6 17.7 25.9 38.6 101.1 92.1 315.6
07/05 22:00 8.2 92 7.71 7 20 39 1013.1 11.8 17.9 26.1 38.9 102.1 93.3 320.0
07/05 21:50 8.2 93 7.79 7.1 22 35 1013.1 11.6 18.1 26.2 39.3 103.0 94.4 323.9
07/05 21:40 8.2 93 7.79 7.1 22 30 1013.1 11.4 18.1 26.2 39.3 103.0 94.4 323.9
07/05 21:30 8.2 93 7.79 7.1 22 41 1013.1 11.2 18.1 26.2 39.3 103.0 94.4 323.9
07/05 21:20 8.2 93 7.79 7.1 19 30 1013.1 10.4 18.1 26.2 39.3 103.0 94.4 323.9
07/05 21:10 8.2 93 7.79 7.1 13 19 1013.1 8.8 18.1 26.2 39.3 103.0 94.4 323.9
07/05 21:00 8.2 92 7.71 7 17 33 1013.1 7.6 17.9 26.1 38.9 102.1 93.3 320.0
07/05 20:50 8.2 92 7.71 7 15 22 1013.1 7.2 17.9 26.1 38.9 102.1 93.3 320.0
07/05 20:40 8 92 7.61 6.8 19 24 1013.1 6.8 17.7 25.9 38.6 101.2 92.2 316.0
07/05 20:30 7.9 93 7.64 6.8 20 35 1013.1 6.6 17.8 26.0 38.8 101.7 92.7 317.8
07/05 20:20 8 92 7.61 6.8 26 37 1013.1 6.4 17.7 25.9 38.6 101.2 92.2 316.0
07/05 20:10 8 90 7.44 6.5 33 48 1013.1 5.6 17.4 25.7 37.9 99.3 89.9 307.8
07/05 20:00 7.9 89 7.31 6.2 24 46 1013.1 4.8 17.1 25.5 37.4 98.0 88.2 302.0

Last Refresh: 08-May-2026 12:08:50

Bureau of Meteorology